createdAt,value
2022-09-07T00:00:02.189Z,15.1
2022-09-07T00:15:01.633Z,15.1
2022-09-07T00:30:02.294Z,15.6
2022-09-07T00:45:01.416Z,14.96
2022-09-07T01:00:02.512Z,14.94
2022-09-07T01:15:01.634Z,14.85
2022-09-07T01:30:02.259Z,14.88
2022-09-07T01:45:02.123Z,14.9
2022-09-07T02:00:02.116Z,14.97
2022-09-07T02:15:02.020Z,15.3
2022-09-07T02:30:02.293Z,14.85
2022-09-07T02:45:01.515Z,14.8
2022-09-07T03:00:02.372Z,14.73
2022-09-07T03:15:01.858Z,14.72
2022-09-07T03:30:02.172Z,14.65
2022-09-07T03:45:01.334Z,14.72
2022-09-07T04:00:02.118Z,14.79
2022-09-07T04:15:02.088Z,14.73
2022-09-07T04:30:02.109Z,14.76
2022-09-07T04:45:01.628Z,14.72
2022-09-07T05:00:02.242Z,14.68
2022-09-07T05:15:01.632Z,14.88
2022-09-07T05:30:03.123Z,15
2022-09-07T05:45:02.030Z,15.34
2022-09-07T06:00:02.273Z,15.38
2022-09-07T06:15:01.730Z,15.17
2022-09-07T06:30:02.276Z,15.31
2022-09-07T06:45:03.151Z,15.56
2022-09-07T07:00:02.195Z,15.51
2022-09-07T07:15:02.019Z,15.72
2022-09-07T07:30:02.314Z,16.5
2022-09-07T08:00:02.231Z,16.65
2022-09-07T08:15:01.448Z,17.13
2022-09-07T08:30:02.391Z,17.84
2022-09-07T08:45:01.918Z,17.94
2022-09-07T09:00:02.476Z,18.15
2022-09-07T09:15:01.519Z,18.7
2022-09-07T09:30:02.554Z,19.5
2022-09-07T09:45:01.857Z,20.12
2022-09-07T10:00:07.134Z,20.36
2022-09-07T10:15:02.214Z,21.79
2022-09-07T10:30:01.485Z,22.53
2022-09-07T10:45:02.007Z,23.55
2022-09-07T11:00:09.610Z,25.97
2022-09-07T11:15:02.103Z,27.71
2022-09-07T11:30:01.662Z,29.93
2022-09-07T11:45:02.185Z,29.61
2022-09-07T12:00:02.191Z,30.39
2022-09-07T12:15:02.337Z,62.6
2022-09-07T12:30:02.070Z,99.7
2022-09-07T12:45:03.285Z,96.51
2022-09-07T13:00:01.932Z,81.5
2022-09-07T13:15:02.977Z,64.73
2022-09-07T13:30:02.362Z,53.84
2022-09-07T13:45:01.561Z,40.79
2022-09-07T14:00:02.179Z,31.26
2022-09-07T14:15:02.927Z,29.57
2022-09-07T14:30:02.283Z,23
2022-09-07T14:45:02.033Z,21.71
2022-09-07T15:00:02.336Z,20.35
2022-09-07T15:15:01.998Z,21.18
2022-09-07T15:30:02.436Z,21.71
2022-09-07T15:45:01.890Z,21.2
2022-09-07T16:00:02.492Z,20.64
2022-09-07T16:15:01.795Z,20.1
2022-09-07T16:30:02.559Z,19.39
2022-09-07T17:00:02.128Z,18.59
2022-09-07T17:15:01.863Z,18.19
2022-09-07T17:30:02.748Z,18
2022-09-07T17:45:01.815Z,17.68
2022-09-07T18:00:17.105Z,17.52
2022-09-07T18:15:02.014Z,17.35
2022-09-07T18:30:03.129Z,17.17
2022-09-07T19:00:01.741Z,16.36
2022-09-07T19:15:02.329Z,16.65
2022-09-07T19:30:01.981Z,16.2
2022-09-07T19:45:02.223Z,15.71
2022-09-07T20:00:01.668Z,16.47
2022-09-07T20:15:02.329Z,15.52
2022-09-07T20:30:02.069Z,16.54
2022-09-07T20:45:02.450Z,16
2022-09-07T21:00:01.525Z,16.39
2022-09-07T21:15:02.549Z,15.64
2022-09-07T21:30:02.172Z,16.9
2022-09-07T21:45:01.410Z,15.35
2022-09-07T22:00:01.671Z,16.18
2022-09-07T22:15:02.559Z,15.94
2022-09-07T22:30:02.172Z,15.81
2022-09-07T22:45:01.392Z,16.1
2022-09-07T23:00:01.745Z,16.14
2022-09-07T23:15:01.584Z,16.12
2022-09-07T23:30:01.859Z,16.35
2022-09-07T23:45:02.812Z,16.32
